Data for 08/01/2015

Time Sea-Level Adjusted Pressure Absolute Pressure Temperature Relative Humidity Dew Point   
(mb) (inHg) (mb) (inHg) (C) (F) (%) (C) (F)
00:05 1023 30.21 853 25.19 17.7 63.8 32 0.7 33.3
00:10 1023 30.21 853 25.19 18.1 64.6 31 1 33.9
00:15 1023 30.21 853 25.19 17.7 63.8 34 1.6 34.9
00:20 1023 30.21 853 25.19 17.2 63 33 0.8 33.5
00:25 1023 30.21 853 25.19 17.3 63.1 33 0.9 33.7
00:30 1023 30.21 853 25.19 17.5 63.5 32 0.7 33.3
00:35 1023 30.21 853 25.19 17.6 63.7 31 0.3 32.5
00:40 1023 30.21 853 25.19 17.6 63.7 32 0.8 33.5
00:45 1023 30.21 853 25.19 17.7 63.9 29 -0.3 31.4
00:50 1023 30.21 852 25.16 18.1 64.6 28 -0.4 31.3
00:55 1023 30.21 852 25.16 18.3 64.9 30 0.4 32.7
01:00 1023 30.21 852 25.16 17.7 63.9 32 1 33.8
01:05 1023 30.21 852 25.16 17.1 62.8 33 0.7 33.3
01:10 1023 30.21 852 25.16 16.8 62.3 33 0.5 33
01:15 1023 30.21 852 25.16 17.1 62.7 31 0.1 32.2
01:20 1023 30.21 852 25.16 17.1 62.8 32 0.3 32.5
01:25 1023 30.21 852 25.16 17.1 62.7 32 0.5 32.8
01:30 1023 30.21 852 25.16 17 62.6 33 0.7 33.2
01:35 1023 30.21 852 25.16 16.7 62 33 0.4 32.7
01:40 1023 30.21 852 25.16 16.7 62 33 0.5 32.9
01:45 1023 30.21 852 25.16 16.6 61.9 38 2.5 36.4
01:50 1023 30.21 852 25.16 16.9 62.5 29 -1.1 30
01:55 1023 30.21 852 25.16 18.2 64.7 28 -0.3 31.5
02:00 1023 30.21 852 25.16 18.2 64.7 28 -0.3 31.5
02:05 1023 30.21 852 25.16 17.9 64.2 31 0.5 32.8
02:10 1023 30.21 852 25.16 17.2 62.9 32 0.3 32.6
02:15 1023 30.21 852 25.16 16.9 62.4 38 2.5 36.6
02:20 1023 30.21 852 25.16 16.6 61.9 34 0.7 33.3
02:25 1023 30.21 852 25.16 16.3 61.4 35 0.9 33.6
02:30 1023 30.21 852 25.16 16 60.9 33 0.1 32.1
02:35 1023 30.21 852 25.16 16.1 61.1 33 0.2 32.3
02:40 1023 30.21 852 25.16 16.1 61 34 0.3 32.5
02:45 1023 30.21 852 25.16 16.2 61.1 33 0 32.1
02:50 1023 30.21 852 25.16 16.6 61.8 33 0.2 32.3
02:55 1023 30.21 852 25.16 16.4 61.5 34 0.6 33.1
03:00 1023 30.21 852 25.16 16.2 61.1 34 0.4 32.8
03:05 1023 30.21 852 25.16 15.9 60.6 35 0.7 33.3
03:10 1023 30.21 852 25.16 15.5 60 38 1.4 34.5
03:15 1023 30.21 852 25.16 14.9 58.7 42 2.1 35.7
03:20 1023 30.21 852 25.16 14.7 58.5 40 1.5 34.6
03:25 1023 30.21 852 25.16 14.8 58.6 41 1.7 35.1
03:30 1023 30.21 852 25.16 14.6 58.2 39 0.7 33.3
03:35 1023 30.21 852 25.16 14.8 58.7 40 1.5 34.7
03:40 1023 30.21 852 25.16 15.4 59.7 37 0.9 33.6
03:45 1023 30.21 852 25.16 14.9 58.9 41 1.7 35.1
03:50 1023 30.21 852 25.16 14.4 57.8 42 1.6 34.9
03:55 1023 30.21 852 25.16 14.1 57.4 44 2.1 35.7
04:00 1023 30.21 852 25.16 13.6 56.4 47 2.7 36.8
04:05 1023 30.21 852 25.16 13.2 55.7 46 1.9 35.5
04:10 1023 30.21 852 25.16 13.3 55.9 45 1.7 35.1
04:15 1023 30.21 852 25.16 13.5 56.4 42 0.9 33.6
04:20 1023 30.21 852 25.16 14.3 57.8 40 1 33.8
04:25 1023 30.21 852 25.16 14.4 57.9 38 0.2 32.3
04:30 1023 30.21 852 25.16 15 59 37 0.6 33.1
04:35 1023 30.21 852 25.16 14.9 58.9 37 0.6 33.1
04:40 1023 30.21 852 25.16 14.8 58.6 38 0.7 33.2
04:45 1023 30.21 852 25.16 15.2 59.4 35 -0 31.9
04:50 1023 30.21 852 25.16 15.2 59.4 37 0.9 33.5
04:55 1023 30.21 852 25.16 14.6 58.4 40 1.3 34.4
05:00 1023 30.21 852 25.16 14 57.2 42 1.4 34.4
05:05 1023 30.21 852 25.16 13.8 56.8 43 1.5 34.7
05:10 1023 30.21 852 25.16 13.5 56.3 44 1.5 34.6
05:15 1023 30.21 852 25.16 13.3 55.9 45 1.6 34.8
05:20 1023 30.21 852 25.16 13.1 55.5 45 1.5 34.7
05:25 1023 30.21 852 25.16 13.5 56.2 42 0.7 33.3
05:30 1023 30.21 852 25.16 14.4 58 38 0.4 32.7
05:35 1023 30.21 852 25.16 14.8 58.7 38 0.7 33.2
05:40 1023 30.21 852 25.16 15 59 37 0.6 33
05:45 1023 30.21 852 25.16 15.1 59.2 37 0.8 33.4
05:50 1023 30.21 852 25.16 15.2 59.3 36 0.5 32.8
05:55 1023 30.21 852 25.16 15.2 59.4 38 1.2 34.2
06:00 1023 30.21 852 25.16 15 59 38 0.9 33.6
06:05 1023 30.21 852 25.16 15.2 59.3 38 1.1 34
06:10 1023 30.21 852 25.16 15.3 59.5 37 0.9 33.6
06:15 1023 30.21 852 25.16 15.5 59.9 39 1.6 34.9
06:20 1023 30.21 852 25.16 15.5 59.9 38 1.2 34.1
06:25 1023 30.21 852 25.16 15.7 60.2 38 1.5 34.6
06:30 1023 30.21 852 25.16 15.9 60.6 39 2 35.5
06:35 1023 30.21 852 25.16 15.7 60.2 40 2.4 36.3
06:40 1023 30.21 852 25.16 15.8 60.4 38 1.7 35.1
06:45 1023 30.21 852 25.16 16.3 61.3 38 2.2 35.9
06:50 1023 30.21 852 25.16 16.6 61.8 41 3.4 38.1
06:55 1023 30.21 852 25.16 17.1 62.8 36 2.1 35.8
07:00 1023 30.21 852 25.16 17.1 62.8 39 3.1 37.5
07:05 1023 30.21 852 25.16 17 62.7 39 3.1 37.5
07:10 1023 30.21 852 25.16 17.2 62.9 39 3.1 37.6
07:15 1023 30.21 852 25.16 17.2 62.9 41 4.1 39.4
07:20 1023 30.21 852 25.16 17.5 63.5 42 4.7 40.4
07:25 1023 30.21 852 25.16 18.2 64.7 40 4.3 39.8
07:30 1023 30.21 853 25.19 18.8 65.9 38 4.5 40
07:35 1023 30.21 853 25.19 19.3 66.7 36 4.1 39.3
07:40 1023 30.21 853 25.19 20.1 68.2 35 4.4 39.9
07:45 1023 30.21 853 25.19 20.7 69.3 34 4.6 40.2
07:50 1023 30.21 853 25.19 21.2 70.2 35 5.2 41.4
07:55 1023 30.21 853 25.19 21 69.8 35 5.1 41.3
08:00 1023 30.21 853 25.19 21.5 70.7 32 4.3 39.7
08:05 1023 30.21 853 25.19 21.7 71 32 4.4 39.9
08:10 1023 30.21 853 25.19 21.7 71.1 28 2.6 36.7
08:15 1023 30.21 853 25.19 21.7 71 28 2.4 36.4
08:20 1023 30.21 853 25.19 22.1 71.9 27 2.5 36.5
08:25 1023 30.21 853 25.19 22.3 72.1 28 3 37.5
08:30 1023 30.21 853 25.19 21.9 71.4 28 2.9 37.2
08:35 1023 30.21 853 25.19 22 71.7 27 2.5 36.5
08:40 1023 30.21 853 25.19 22.4 72.4 27 2.7 36.9
08:45 1023 30.21 853 25.19 22.7 72.9 26 2.6 36.7
08:50 1023 30.21 852 25.16 23 73.3 26 2.7 36.9
08:55 1023 30.21 852 25.16 22.9 73.3 25 2.2 35.9
09:00 1023 30.21 852 25.16 23.1 73.6 27 3.2 37.8
09:05 1023 30.21 852 25.16 23.2 73.8 26 2.9 37.1
09:10 1023 30.21 852 25.16 22.7 72.8 26 2.5 36.5
09:15 1023 30.21 852 25.16 22.7 72.9 25 2.1 35.7
09:20 1023 30.21 852 25.16 23 73.4 26 2.4 36.3
09:25 1023 30.21 852 25.16 24 75.2 23 2 35.6
09:30 1023 30.21 852 25.16 24.3 75.7 23 2.1 35.7
09:35 1023 30.21 852 25.16 24.2 75.5 22 1 33.9
09:40 1023 30.21 852 25.16 24.4 75.9 21 1.2 34.1
09:45 1023 30.21 852 25.16 24.8 76.6 22 1.9 35.4
09:50 1023 30.21 852 25.16 25.2 77.4 22 1.9 35.5
09:55 1023 30.21 852 25.16 25.7 78.3 21 1.7 35.1
10:00 1023 30.21 852 25.16 26.1 79 19 0.6 33.1
10:05 1023 30.21 852 25.16 26.4 79.4 19 1.4 34.6
10:10 1022 30.18 852 25.16 26.7 80 21 2.5 36.5
10:15 1022 30.18 852 25.16 26.3 79.3 19 1.3 34.3
10:20 1022 30.18 852 25.16 25.8 78.4 22 2.9 37.2
10:25 1022 30.18 852 25.16 26.1 79 20 1.7 35.1
10:30 1022 30.18 852 25.16 26.6 79.8 19 1.7 35.1
10:35 1022 30.18 852 25.16 27.4 81.3 17 0.3 32.5
10:40 1022 30.18 852 25.16 27.9 82.2 16 -0.2 31.6
10:45 1022 30.18 852 25.16 27.7 81.8 17 0.5 33
10:50 1022 30.18 852 25.16 27.9 82.2 15 -0.4 31.2
10:55 1022 30.18 851 25.13 28.3 83 15 -0.7 30.7
11:00 1022 30.18 851 25.13 28 82.4 17 0.6 33.1
11:05 1022 30.18 851 25.13 28.5 83.4 14 -0.9 30.4
11:10 1022 30.18 851 25.13 29.1 84.4 15 -0.2 31.6
11:15 1022 30.18 851 25.13 28.9 84.1 14 -0.8 30.6
11:20 1022 30.18 851 25.13 29.3 84.7 14 -0.5 31
11:25 1022 30.18 851 25.13 30 86 14 -0.2 31.7
11:30 1022 30.18 851 25.13 29.4 84.9 13 -1.1 30
11:35 1022 30.18 851 25.13 29.3 84.7 14 -1 30.3
11:40 1022 30.18 851 25.13 30 86 13 -1 30.2
11:45 1022 30.18 851 25.13 31.2 88.2 12 -0.6 30.9
11:50 1022 30.18 851 25.13 31.5 88.7 13 0.3 32.6
11:55 1022 30.18 851 25.13 31.9 89.3 12 -0.2 31.6
12:00 1022 30.18 851 25.13 31.8 89.2 12 -0.4 31.3
12:05 1022 30.18 851 25.13 31.7 89 13 0.2 32.4
12:10 1022 30.18 851 25.13 32 89.6 12 -0.6 31
12:15 1021 30.15 851 25.13 31.5 88.7 12 -0.8 30.6
12:20 1021 30.15 851 25.13 31.5 88.6 12 -0.6 31
12:25 1021 30.15 851 25.13 31.6 88.8 13 0.1 32.2
12:30 1021 30.15 851 25.13 32 89.7 11 -2.3 27.9
12:35 1021 30.15 851 25.13 32.2 89.9 11 -1.5 29.3
12:40 1021 30.15 850 25.1 31.9 89.5 11 -1.5 29.3
12:45 1021 30.15 850 25.1 32.2 90 13 0.4 32.6
12:50 1021 30.15 850 25.1 32.8 91 10 -1.8 28.7
12:55 1021 30.15 850 25.1 32.5 90.5 11 -1.9 28.6
13:00 1021 30.15 850 25.1 32.5 90.4 10 -2.3 27.8
13:05 1021 30.15 850 25.1 32.5 90.6 11 -1.5 29.3
13:10 1021 30.15 850 25.1 33 91.3 11 -1.4 29.4
13:15 1021 30.15 850 25.1 32.5 90.5 12 -0.5 31
13:20 1021 30.15 850 25.1 32.8 91 11 -1.2 29.9
13:25 1021 30.15 850 25.1 33.1 91.6 11 -0.9 30.4
13:30 1021 30.15 850 25.1 33.4 92.1 11 -0.2 31.6
13:35 1021 30.15 850 25.1 31.8 89.3 13 -0.1 31.8
13:40 1021 30.15 850 25.1 32.3 90.2 12 -0.4 31.2
13:45 1021 30.15 850 25.1 32.9 91.1 12 0.1 32.2
13:50 1021 30.15 850 25.1 33.2 91.7 11 -1.2 29.8
13:55 1021 30.15 850 25.1 33.1 91.6 11 -1 30.2
14:00 1021 30.15 850 25.1 32.8 91.1 10 -1.8 28.8
14:05 1020 30.12 850 25.1 32.9 91.2 11 -0.5 31.1
14:10 1020 30.12 850 25.1 33 91.4 11 -0.7 30.7
14:15 1020 30.12 850 25.1 33 91.4 12 0 32.1
14:20 1020 30.12 849 25.07 33.6 92.4 11 -0.1 31.8
14:25 1020 30.12 849 25.07 32.7 90.9 11 -0.7 30.7
14:30 1020 30.12 849 25.07 32.5 90.4 11 -1.3 29.7
14:35 1020 30.12 849 25.07 33 91.5 11 -0.7 30.7
14:40 1020 30.12 849 25.07 32.8 91 11 -1.3 29.6
14:45 1020 30.12 849 25.07 32.9 91.2 12 -0.4 31.3
14:50 1020 30.12 849 25.07 32.9 91.2 12 -0.2 31.6
14:55 1020 30.12 849 25.07 32.9 91.1 11 -1.2 29.9
15:00 1020 30.12 849 25.07 33.2 91.7 10 -1.8 28.7
15:05 1020 30.12 849 25.07 33.8 92.8 11 -0.9 30.4
15:10 1020 30.12 849 25.07 33.8 92.8 11 -0.1 31.8
15:15 1020 30.12 849 25.07 34.2 93.6 11 0.3 32.5
15:20 1019 30.09 849 25.07 34 93.1 10 -0.9 30.4
15:25 1019 30.09 849 25.07 33.5 92.3 11 -0 31.9
15:30 1019 30.09 849 25.07 34.1 93.4 12 0.7 33.2
15:35 1019 30.09 848 25.04 34.3 93.7 11 -0.4 31.2
15:40 1019 30.09 848 25.04 34.7 94.4 9 -2.1 28.3
15:45 1019 30.09 848 25.04 33.7 92.7 10 -2 28.5
15:50 1019 30.09 848 25.04 32.5 90.6 11 -1.3 29.7
15:55 1019 30.09 848 25.04 32.6 90.7 10 -1.9 28.5
16:00 1019 30.09 848 25.04 33.2 91.7 10 -1.8 28.8
16:05 1019 30.09 848 25.04 33.4 92.2 10 -2.2 28.1
16:10 1019 30.09 848 25.04 32.8 91 10 -1.8 28.8
16:15 1019 30.09 848 25.04 32.6 90.7 10 -2.4 27.6
16:20 1019 30.09 848 25.04 33.3 92 10 -2.1 28.3
16:25 1019 30.09 848 25.04 33.5 92.2 10 -1.6 29.1
16:30 1019 30.09 848 25.04 33.5 92.3 10 -1.9 28.5
16:35 1019 30.09 848 25.04 33.1 91.6 10 -1.9 28.6
16:40 1019 30.09 848 25.04 33.5 92.2 9 -2.8 26.9
16:45 1019 30.09 848 25.04 33.3 91.9 10 -1.6 29.2
16:50 1019 30.09 848 25.04 32.5 90.5 11 -1.6 29.1
16:55 1019 30.09 848 25.04 32.6 90.8 11 -1.2 29.9
17:00 1019 30.09 848 25.04 33 91.4 11 -0.9 30.5
17:05 1019 30.09 848 25.04 32.6 90.7 10 -2.9 26.9
17:10 1019 30.09 848 25.04 32.4 90.3 11 -1.9 28.5
17:15 1019 30.09 848 25.04 32.4 90.2 11 -1.3 29.7
17:20 1018 30.06 848 25.04 32.4 90.2 10 -2.1 28.1
17:25 1018 30.06 848 25.04 32 89.5 11 -1.5 29.2
17:30 1018 30.06 848 25.04 31.7 89 12 -0.7 30.7
17:35 1018 30.06 848 25.04 31.6 89 11 -1.5 29.2
17:40 1018 30.06 848 25.04 32.2 90 11 -1.5 29.4
17:45 1018 30.06 847 25.01 32.5 90.4 11 -1.9 28.6
17:50 1018 30.06 847 25.01 32.3 90.1 11 -1.5 29.3
17:55 1018 30.06 847 25.01 32.3 90.1 11 -1.3 29.7
18:00 1018 30.06 847 25.01 32.2 89.9 11 -1 30.2
18:05 1018 30.06 847 25.01 31.8 89.2 12 -0.4 31.2
18:10 1018 30.06 847 25.01 31.2 88.1 13 -0.6 30.9
18:15 1018 30.06 847 25.01 31 87.7 12 -1.5 29.3
18:20 1018 30.06 847 25.01 30.8 87.4 15 1.2 34.1
18:25 1018 30.06 847 25.01 30.5 86.8 14 0.6 33.1
18:30 1018 30.06 847 25.01 30.3 86.5 17 2.4 36.4
18:35 1018 30.06 847 25.01 30 86.1 18 3.2 37.8
18:40 1018 30.06 847 25.01 29.9 85.8 18 3 37.3
18:45 1018 30.06 847 25.01 29.7 85.5 16 1.2 34.2
18:50 1018 30.06 847 25.01 29.6 85.2 18 2.9 37.2
18:55 1018 30.06 847 25.01 29.4 84.8 22 5.8 42.4
19:00 1018 30.06 847 25.01 29 84.2 25 7.3 45.2
19:05 1018 30.06 847 25.01 28.4 83 29 8.8 47.8
19:10 1018 30.06 847 25.01 27.9 82.3 28 7.8 46.1
19:15 1018 30.06 847 25.01 27.3 81.2 29 7.9 46.2
19:20 1018 30.06 847 25.01 26.8 80.2 28 7.2 45
19:25 1018 30.06 847 25.01 26.2 79.2 36 10.1 50.1
19:30 1018 30.06 847 25.01 25.6 78 31 7.4 45.4
19:35 1018 30.06 847 25.01 24.9 76.7 31 6.7 44.1
19:40 1018 30.06 847 25.01 24.6 76.3 31 6.7 44
19:45 1018 30.06 847 25.01 24.6 76.3 28 5.4 41.6
19:50 1018 30.06 847 25.01 24.5 76.1 29 5.4 41.8
19:55 1018 30.06 847 25.01 24.3 75.7 29 5.4 41.8
20:00 1018 30.06 847 25.01 24 75.2 30 5.6 42.1
20:05 1018 30.06 847 25.01 23.8 74.8 32 6.5 43.8
20:10 1018 30.06 847 25.01 23.3 74 33 6.4 43.4
20:15 1018 30.06 848 25.04 23 73.4 34 6.6 43.8
20:20 1018 30.06 848 25.04 22.8 73 31 5.1 41.2
20:25 1019 30.09 848 25.04 22.5 72.5 35 6.5 43.7
20:30 1019 30.09 848 25.04 22.5 72.4 28 3.5 38.3
20:35 1019 30.09 848 25.04 22.9 73.2 29 4 39.2
20:40 1019 30.09 848 25.04 22.8 73.1 28 3.8 38.8
20:45 1019 30.09 848 25.04 22.7 72.8 29 4 39.2
20:50 1019 30.09 848 25.04 22.3 72.1 29 3.7 38.6
20:55 1019 30.09 848 25.04 22.1 71.8 29 3.4 38.1
21:00 1019 30.09 848 25.04 21.9 71.5 30 3.5 38.4
21:05 1019 30.09 848 25.04 22 71.6 28 3.1 37.6
21:10 1019 30.09 848 25.04 22.2 72 29 3.5 38.3
21:15 1019 30.09 848 25.04 21.9 71.5 30 3.6 38.5
21:20 1019 30.09 848 25.04 21.6 70.8 30 3.4 38.1
21:25 1019 30.09 848 25.04 21.5 70.6 30 3.3 37.9
21:30 1019 30.09 848 25.04 21.4 70.4 30 3.2 37.8
21:35 1019 30.09 848 25.04 21.2 70.2 30 3.1 37.6
21:40 1019 30.09 848 25.04 21.1 69.9 29 2.7 36.9
21:45 1019 30.09 848 25.04 21.5 70.7 28 2.4 36.3
21:50 1019 30.09 848 25.04 21.6 70.9 27 2.2 36
21:55 1019 30.09 848 25.04 21.8 71.2 26 1.9 35.4
22:00 1019 30.09 848 25.04 21.8 71.3 27 2.3 36.2
22:05 1019 30.09 848 25.04 21.5 70.6 28 2.5 36.5
22:10 1019 30.09 849 25.07 21.2 70.1 29 2.5 36.4
22:15 1019 30.09 848 25.04 20.8 69.5 30 2.8 37
22:20 1019 30.09 848 25.04 20.5 68.9 30 2.3 36.1
22:25 1019 30.09 848 25.04 20.6 69 30 2.7 36.9
22:30 1019 30.09 848 25.04 20.9 69.5 28 1.7 35
22:35 1019 30.09 848 25.04 21.2 70.2 28 2.3 36.2
22:40 1019 30.09 849 25.07 20.8 69.4 32 3.4 38.2
22:45 1019 30.09 849 25.07 20 68.1 33 3.3 37.9
22:50 1019 30.09 848 25.04 19.6 67.2 35 3.6 38.5
22:55 1019 30.09 848 25.04 19 66.2 36 3.8 38.8
23:00 1019 30.09 848 25.04 18.8 65.9 36 3.5 38.2
23:05 1019 30.09 849 25.07 18.8 65.8 36 3.3 38
23:10 1019 30.09 849 25.07 18.6 65.4 37 3.8 38.9
23:15 1019 30.09 849 25.07 18.9 66 31 1.6 35
23:20 1019 30.09 849 25.07 19.5 67.2 32 2.5 36.5
23:25 1019 30.09 849 25.07 19.3 66.8 32 2.4 36.3
23:30 1020 30.12 849 25.07 19.3 66.8 31 2.1 35.8
23:35 1019 30.09 849 25.07 19.4 66.9 31 1.9 35.5
23:40 1020 30.12 849 25.07 19.6 67.2 29 1.3 34.3
23:45 1020 30.12 849 25.07 20 68 30 2.2 36
23:50 1020 30.12 849 25.07 20 68 29 1.8 35.2
23:55 1020 30.12 849 25.07 19.8 67.7 30 1.7 35
24:00 1020 30.12 849 25.07 19.6 67.3 30 1.7 35